Latest Weather Observations for Norfolk Island

IDN60801

Issued at 7:14 pm EDT Friday 19 December 2014 (issued every 30 minutes, with the page automatically refreshed every 10 minutes)

About weather observations | Map of weather stations | Latest weather observations for NSW | Other Formats
Station Details ID: 200288 Name: NORFOLK ISLAND AERO Lat: -29.04 Lon: 167.94 Height: 111.73 m
Data from the previous 72 hours. | See also: Recent months at Norfolk Island
Date/Time
EDT
Temp
°C
App
Temp
°C
Dew
Point
Rel
Hum
%
Delta-T
°C
Wind Press
QNH
hPa
Press
MSL
hPa
Rain
since 9 am
mm
Dir
 
Spd
km/h
Gust
km/h
Spd
kts
Gust
kts
19/07:00pm 22.8 23.4 21.3 91 1.0 NE 20 30 11 16 1014.3 - 0.2
19/06:30pm 23.1 23.9 21.7 92 0.9 NNE 20 28 11 15 1013.9 - 0.2
19/06:25pm 23.1 24.4 21.7 92 0.9 NNE 17 26 9 14 1013.9 - 0.2
19/06:00pm 23.2 23.4 21.4 90 1.2 NNE 22 30 12 16 1013.8 - 0.2
19/05:30pm 24.0 23.9 21.4 85 1.7 NE 24 32 13 17 1013.3 1013.0 0.2
19/05:21pm 24.1 24.0 21.4 85 1.8 NE 24 33 13 18 1013.2 - 0.2
19/05:00pm 23.7 24.1 21.7 88 1.3 NNE 22 32 12 17 1013.2 - 0.2
19/04:30pm 24.0 25.0 21.7 87 1.5 NE 19 28 10 15 1013.2 - 0.2
19/04:00pm 24.2 25.2 21.8 86 1.6 NE 19 28 10 15 1013.4 - 0.2
19/03:30pm 24.4 25.2 21.7 85 1.8 ENE 20 26 11 14 1013.4 - 0.2
19/03:00pm 25.0 25.1 21.9 83 2.1 NE 24 32 13 17 1013.6 - 0.2
19/02:30pm 24.9 25.2 21.6 82 2.2 NE 22 28 12 15 1014.2 1013.8 0.2
19/02:01pm 24.5 24.4 21.5 83 2.0 NE 24 32 13 17 1014.7 - 0.2
19/01:30pm 24.8 25.5 21.2 80 2.4 NE 19 28 10 15 1015.0 - 0.2
19/01:00pm 25.2 25.8 21.4 79 2.5 NE 20 26 11 14 1015.2 - 0.2
19/12:30pm 24.7 25.2 21.1 80 2.4 NE 20 28 11 15 1015.3 - 0.2
19/12:00pm 24.7 25.4 21.2 81 2.3 NE 19 28 10 15 1015.6 - 0.2
19/11:30am 24.7 25.5 21.4 82 2.2 NE 19 26 10 14 1015.9 1015.5 0.2
19/11:00am 24.6 25.8 20.6 78 2.6 NE 15 20 8 11 1016.1 - 0.0
19/10:30am 24.6 25.1 21.1 81 2.3 ENE 20 26 11 14 1016.1 - 0.0
19/10:00am 24.1 23.8 20.4 80 2.4 ENE 22 32 12 17 1015.6 - 0.0
19/09:30am 24.3 24.1 20.5 79 2.5 ENE 22 32 12 17 1015.5 - 0.0
19/09:00am 24.1 23.7 20.1 78 2.6 ENE 22 28 12 15 1015.6 - 0.0
19/08:30am 23.6 23.9 20.5 83 2.0 NE 19 26 10 14 1015.8 1015.4 0.0
19/07:59am 23.5 23.6 20.3 82 2.1 ENE 20 26 11 14 1016.0 - 0.0
19/07:30am 22.8 23.5 20.5 87 1.5 ENE 17 24 9 13 1016.2 - 0.0
19/06:30am 21.8 21.9 19.9 89 1.2 ENE 19 26 10 14 1016.0 - 0.0
19/06:13am 21.6 21.5 19.6 88 1.3 ENE 19 24 10 13 1015.9 - 0.0
19/06:00am 21.6 21.8 19.4 87 1.4 ENE 17 24 9 13 1015.9 - 0.0
19/05:56am 21.3 21.5 19.4 89 1.2 ENE 17 24 9 13 1015.8 - 0.0
19/05:41am 20.8 21.7 19.2 90 1.0 E 13 19 7 10 1015.8 - 0.0
19/05:30am 20.5 21.3 19.1 92 0.9 E 13 17 7 9 1015.7 1015.3 0.0
19/05:00am 20.0 20.6 18.7 92 0.8 E 13 17 7 9 1015.4 - 0.0
19/04:34am 20.4 21.1 18.8 90 1.0 E 13 17 7 9 1015.0 - 0.0
19/04:30am 20.3 21.0 18.9 92 0.9 E 13 17 7 9 1015.0 - 0.0
19/04:03am 20.4 20.8 19.1 92 0.8 E 15 19 8 10 1015.3 - 0.0
19/04:00am 20.4 20.8 19.1 92 0.8 ENE 15 19 8 10 1015.3 - 0.0
19/03:59am 20.4 20.8 19.1 92 0.8 ENE 15 19 8 10 1015.2 - 0.0
19/03:43am 20.1 20.5 19.0 93 0.7 ENE 15 15 8 8 1015.4 - 0.0
19/03:30am 20.1 20.8 18.8 92 0.8 ENE 13 17 7 9 1015.4 - 0.0
19/03:00am 19.9 20.2 18.8 93 0.7 ENE 15 17 8 9 1015.3 - 0.0
19/02:30am 20.1 20.4 18.8 92 0.8 ENE 15 17 8 9 1015.7 1015.3 0.0
19/02:00am 20.7 22.6 19.0 90 1.1 ENE 7 9 4 5 1016.3 - 0.0
19/01:30am 20.2 21.7 18.8 92 0.9 ENE 9 11 5 6 1016.1 - 0.0
19/01:00am 20.5 21.1 18.6 89 1.2 ENE 13 15 7 8 1016.1 - 0.0
19/12:55am 20.7 21.4 18.8 89 1.2 ENE 13 15 7 8 1016.2 - 0.0
19/12:30am 20.9 21.3 19.0 89 1.2 ENE 15 17 8 9 1016.3 - 0.0
19/12:24am 21.0 21.4 18.9 88 1.3 ENE 15 20 8 11 1016.2 - 0.0
19/12:19am 21.0 21.0 18.9 88 1.3 ENE 17 20 9 11 1016.1 - 0.0
19/12:00am 21.0 21.0 18.9 88 1.3 ENE 17 22 9 12 1016.4 - 0.0
 
Date/Time
EDT
Temp
°C
App
Temp
°C
Dew
Point
Rel
Hum
%
Delta-T
°C
Wind Press
QNH
hPa
Press
MSL
hPa
Rain
since 9 am
mm
Dir
 
Spd
km/h
Gust
km/h
Spd
kts
Gust
kts
18/11:57pm 20.9 20.9 19.0 89 1.2 ENE 17 24 9 13 1016.4 - 0.0
18/11:30pm 20.8 21.2 18.9 89 1.2 ENE 15 19 8 10 1017.0 1016.6 0.0
18/11:00pm 21.0 21.3 18.8 87 1.4 ENE 15 22 8 12 1016.9 - 0.0
18/10:30pm 21.0 20.5 18.6 86 1.5 ENE 19 26 10 14 1016.9 - 0.0
18/10:00pm 21.1 20.6 18.6 86 1.6 ENE 19 26 10 14 1016.8 - 0.0
18/09:30pm 20.8 20.6 18.4 86 1.5 ENE 17 22 9 12 1016.9 - 0.0
18/09:00pm 20.0 19.9 17.9 88 1.3 E 15 17 8 9 1017.0 - 0.0
18/08:30pm 20.0 20.4 18.2 89 1.1 E 13 17 7 9 1016.9 1016.5 0.0
18/08:00pm 20.3 20.8 18.4 89 1.2 ENE 13 13 7 7 1017.1 - 0.0
18/07:30pm 20.4 21.3 18.3 88 1.3 E 11 11 6 6 1017.4 - 0.0
18/07:00pm 21.7 22.7 18.7 83 1.9 E 11 15 6 8 1017.5 - 0.0
18/06:30pm 22.2 23.1 18.4 79 2.4 SE 11 15 6 8 1017.5 - 0.0
18/06:00pm 22.6 23.3 18.0 75 2.9 ESE 11 15 6 8 1017.4 - 0.0
18/05:30pm 22.5 23.2 18.0 75 2.8 E 11 15 6 8 1017.1 1016.7 0.0
18/05:00pm 22.5 22.8 18.0 75 2.8 ENE 13 17 7 9 1017.0 - 0.0
18/04:30pm 22.9 24.4 18.1 74 3.0 ESE 7 9 4 5 1016.6 - 0.0
18/04:00pm 22.9 23.1 17.6 72 3.3 E 13 17 7 9 1016.4 - 0.0
18/03:30pm 23.1 23.5 18.2 74 3.1 ENE 13 15 7 8 1016.3 - 0.0
18/03:00pm 23.2 23.7 17.4 70 3.6 ENE 11 17 6 9 1016.2 - 0.0
18/02:30pm 23.0 23.2 17.7 72 3.3 E 13 17 7 9 1016.2 1015.8 0.0
18/02:00pm 23.2 23.5 17.9 72 3.3 NNE 13 17 7 9 1016.4 - 0.0
18/01:30pm 22.9 23.0 17.4 71 3.4 NNE 13 19 7 10 1016.5 - 0.0
18/01:00pm 23.1 23.5 17.3 70 3.6 NE 11 17 6 9 1016.5 - 0.0
18/12:30pm 22.9 24.2 18.5 76 2.8 E 9 15 5 8 1016.6 - 0.0
18/12:00pm 23.0 24.7 18.6 76 2.8 NNW 7 11 4 6 1016.7 - 0.0
18/11:30am 22.6 24.5 18.5 77 2.6 ESE 6 11 3 6 1016.8 1016.4 0.0
18/11:00am 22.1 22.7 18.6 80 2.2 SSE 13 15 7 8 1016.9 - 0.0
18/10:30am 21.8 22.7 18.5 81 2.1 SE 11 15 6 8 1016.9 - 0.0
18/10:00am 22.1 23.1 17.8 76 2.7 ESE 9 11 5 6 1016.9 - 0.0
18/09:30am 22.4 22.5 17.4 73 3.1 SSE 13 17 7 9 1016.7 - 0.0
18/09:00am 22.8 23.7 18.4 76 2.8 E 11 17 6 9 1016.6 - 0.0
18/08:30am 22.1 23.1 17.8 76 2.7 NNW 9 13 5 7 1016.5 1016.1 0.0
18/08:00am 23.2 25.0 17.4 70 3.6 E 4 9 2 5 1016.4 - 0.0
18/07:30am 22.5 24.2 18.0 75 2.8 N 6 7 3 4 1016.3 - 0.0
18/07:00am 21.8 23.4 17.8 78 2.5 N 6 9 3 5 1016.1 - 0.0
18/06:30am 21.8 23.4 18.3 80 2.2 N 7 9 4 5 1015.7 - 0.0
18/06:00am 21.0 24.3 19.1 89 1.2 CALM 0 0 0 0 1015.6 - 0.0
18/05:30am 19.1 22.0 18.1 94 0.6 CALM 0 0 0 0 1015.3 1014.9 0.0
18/05:00am 18.5 21.2 17.7 95 0.5 CALM 0 0 0 0 1014.9 - 0.0
18/04:30am 18.6 21.3 17.8 95 0.5 CALM 0 0 0 0 1014.6 - 0.0
18/04:00am 19.0 21.9 18.2 95 0.5 CALM 0 0 0 0 1014.2 - 0.0
18/03:30am 18.8 21.5 17.8 94 0.6 CALM 0 0 0 0 1013.8 - 0.0
18/03:00am 19.2 22.1 18.1 93 0.7 CALM 0 0 0 0 1013.7 - 0.0
18/02:30am 19.2 22.1 18.1 93 0.7 CALM 0 0 0 0 1013.6 1013.3 0.0
18/02:00am 19.0 21.8 17.9 93 0.7 CALM 0 0 0 0 1013.6 - 0.0
18/01:30am 18.6 21.3 17.8 95 0.5 CALM 0 0 0 0 1013.3 - 0.0
18/01:00am 19.0 21.8 17.9 93 0.7 CALM 0 0 0 0 1013.7 - 0.0
18/12:30am 19.2 22.1 18.1 93 0.7 CALM 0 0 0 0 1013.8 - 0.0
18/12:00am 19.2 22.0 17.9 92 0.8 CALM 0 0 0 0 1014.1 - 0.0
 
Date/Time
EDT
Temp
°C
App
Temp
°C
Dew
Point
Rel
Hum
%
Delta-T
°C
Wind Press
QNH
hPa
Press
MSL
hPa
Rain
since 9 am
mm
Dir
 
Spd
km/h
Gust
km/h
Spd
kts
Gust
kts
17/11:30pm 19.2 21.9 17.7 91 0.9 CALM 0 0 0 0 1014.2 1013.8 0.0
17/11:00pm 19.7 22.5 17.9 89 1.1 CALM 0 0 0 0 1014.3 - 0.0
17/10:30pm 19.5 22.3 18.0 91 0.9 CALM 0 0 0 0 1014.2 - 0.0
17/10:00pm 20.2 22.3 18.1 88 1.3 N 4 9 2 5 1013.9 - 0.0
17/09:30pm 19.7 22.6 18.1 90 1.0 CALM 0 0 0 0 1013.7 - 0.0
17/09:00pm 20.2 23.1 18.1 88 1.3 CALM 0 0 0 0 1013.6 - 0.0
17/08:30pm 19.6 22.4 18.0 90 1.0 CALM 0 0 0 0 1012.9 1012.6 0.0
17/08:00pm 20.1 23.0 18.3 89 1.1 CALM 0 0 0 0 1012.6 - 0.0
17/07:30pm 20.7 21.9 18.3 86 1.5 W 9 9 5 5 1012.5 - 0.0
17/07:00pm 20.8 23.7 18.2 85 1.6 CALM 0 0 0 0 1011.9 - 0.0
17/06:30pm 21.4 23.1 18.0 81 2.1 WNW 6 9 3 5 1011.5 - 0.0
17/06:00pm 22.1 23.3 18.3 79 2.4 WNW 9 13 5 7 1011.1 - 0.0
17/05:30pm 22.7 23.5 18.1 75 2.9 W 11 15 6 8 1010.6 1010.3 0.0
17/05:00pm 23.0 23.7 17.9 73 3.2 W 11 17 6 9 1010.2 - 0.0
17/04:30pm 22.4 22.7 17.8 75 2.9 W 13 19 7 10 1009.9 - 0.0
17/04:00pm 22.9 22.4 17.8 73 3.2 W 17 22 9 12 1009.8 - 0.0
17/03:30pm 23.9 23.5 18.0 69 3.7 W 17 22 9 12 1009.6 - 0.0
17/03:00pm 24.2 23.5 18.2 69 3.8 W 19 24 10 13 1009.9 - 0.0
17/02:30pm 24.4 23.4 17.9 67 4.1 WSW 20 24 11 13 1009.9 1009.5 0.0
17/02:00pm 24.0 23.0 18.0 69 3.8 W 20 28 11 15 1010.0 - 0.0
17/01:30pm 23.8 23.0 17.9 69 3.7 WNW 19 26 10 14 1009.8 - 0.0
17/01:00pm 24.2 23.6 18.5 70 3.6 WSW 19 26 10 14 1009.7 - 0.0
17/12:30pm 23.9 23.1 18.0 69 3.7 WNW 19 28 10 15 1009.6 - 0.0
17/12:00pm 23.5 22.8 18.3 72 3.3 W 19 26 10 14 1009.5 - 0.0
17/11:30am 22.6 21.3 18.1 76 2.8 WSW 22 28 12 15 1009.3 1008.9 0.0
17/11:00am 24.0 23.1 18.3 70 3.6 W 20 30 11 16 1009.2 - 0.0
17/10:30am 23.5 22.6 18.3 72 3.3 W 20 30 11 16 1009.1 - 0.0
17/10:00am 23.3 22.2 18.6 75 3.0 W 22 30 12 16 1008.8 - 0.0
17/09:30am 23.6 22.1 18.6 73 3.2 W 24 32 13 17 1008.7 - 0.0
17/09:00am 23.0 21.3 18.1 74 3.1 W 24 33 13 18 1008.6 - 0.0
17/08:30am 22.7 21.2 18.6 77 2.6 W 24 32 13 17 1008.5 1008.1 1.2
17/08:13am 22.5 21.0 18.5 78 2.5 W 24 32 13 17 1008.3 - 1.2
17/08:00am 22.3 21.1 18.3 78 2.5 W 22 30 12 16 1008.2 - 1.2
17/07:30am 22.1 21.6 18.6 80 2.2 WNW 19 30 10 16 1007.9 - 1.2
17/07:00am 21.8 21.8 19.0 84 1.8 WNW 17 24 9 13 1007.7 - 1.2
17/06:30am 21.6 21.0 18.4 82 2.0 WNW 19 26 10 14 1007.4 - 1.2
17/06:17am 21.2 20.9 18.3 83 1.8 WNW 17 26 9 14 1007.3 - 1.2
17/06:05am 21.1 21.1 18.2 83 1.8 WNW 15 22 8 12 1007.1 - 1.2
17/06:00am 21.2 21.4 18.5 84 1.7 WNW 15 22 8 12 1006.9 - 1.2
17/05:30am 20.9 20.6 18.2 84 1.7 WNW 17 26 9 14 1006.4 1006.0 1.2
17/05:19am 20.7 20.3 18.1 85 1.6 WNW 17 26 9 14 1006.2 - 1.2
17/05:06am 20.7 20.3 18.1 85 1.6 WNW 17 24 9 13 1006.2 - 1.2
17/05:00am 20.7 20.3 18.1 85 1.6 WNW 17 24 9 13 1006.2 - 1.2
17/04:30am 20.4 20.1 18.2 87 1.4 WNW 17 26 9 14 1005.5 - 1.2
17/04:05am 20.5 20.2 18.3 87 1.4 WNW 17 22 9 12 1005.3 - 1.2
17/04:00am 20.5 19.7 18.1 86 1.5 WNW 19 26 10 14 1005.3 - 1.2
17/03:40am 20.6 20.4 18.4 87 1.4 WNW 17 26 9 14 1004.9 - 1.2
17/03:30am 20.5 20.6 18.3 87 1.4 WNW 15 24 8 13 1004.9 - 1.2
17/03:22am 20.6 20.7 18.4 87 1.4 WNW 15 26 8 14 1004.8 - 1.2
17/03:00am 20.6 20.4 18.4 87 1.4 WNW 17 26 9 14 1004.6 - 1.2
17/02:51am 20.6 20.4 18.5 88 1.3 W 17 30 9 16 1004.6 - 0.8
17/02:31am 20.6 20.3 18.2 86 1.5 WNW 17 28 9 15 1004.6 - 0.8
17/02:30am 20.5 20.1 18.1 86 1.5 WNW 17 28 9 15 1004.6 1004.3 0.8
17/02:06am 20.6 19.8 18.5 88 1.3 WNW 20 28 11 15 1004.6 - 0.8
17/02:03am 20.7 20.1 18.5 87 1.4 WNW 19 28 10 15 1004.5 - 0.8
17/02:00am 20.7 20.0 18.3 86 1.5 WNW 19 28 10 15 1004.5 - 0.8
17/01:30am 20.6 20.4 18.4 87 1.4 WNW 17 26 9 14 1004.6 - 0.8
17/01:14am 20.5 20.2 18.3 87 1.4 WNW 17 26 9 14 1004.6 - 0.8
17/01:00am 20.5 20.3 18.4 88 1.3 WNW 17 26 9 14 1004.6 - 0.8
17/12:30am 20.5 20.3 18.4 88 1.3 W 17 24 9 13 1004.8 - 0.8
17/12:00am 20.5 19.8 18.3 87 1.4 W 19 26 10 14 1004.8 - 0.8
 
Date/Time
EDT
Temp
°C
App
Temp
°C
Dew
Point
Rel
Hum
%
Delta-T
°C
Wind Press
QNH
hPa
Press
MSL
hPa
Rain
since 9 am
mm
Dir
 
Spd
km/h
Gust
km/h
Spd
kts
Gust
kts
16/11:38pm 20.5 19.5 17.9 85 1.6 W 20 28 11 15 1004.8 - 0.8
16/11:30pm 20.6 19.6 17.9 84 1.7 W 20 28 11 15 1004.7 1004.4 0.8
16/11:24pm 20.6 19.7 18.2 86 1.5 W 20 26 11 14 1004.8 - 0.8
16/11:03pm 20.6 19.9 18.2 86 1.5 W 19 24 10 13 1004.8 - 0.8
16/11:00pm 20.6 20.4 18.4 87 1.4 W 17 24 9 13 1004.8 - 0.8
16/10:45pm 20.6 20.4 18.5 88 1.3 WNW 17 20 9 11 1004.8 - 0.8
16/10:44pm 20.6 20.4 18.5 88 1.3 WNW 17 20 9 11 1004.8 - 0.8
16/10:30pm 20.6 20.8 18.5 88 1.3 WNW 15 26 8 14 1004.8 - 0.8
16/10:24pm 20.5 21.2 18.8 90 1.1 WNW 13 17 7 9 1004.8 - 0.8
16/10:00pm 20.5 20.8 18.8 90 1.1 WNW 15 20 8 11 1005.0 - 0.8
16/09:30pm 20.6 20.5 18.7 89 1.2 W 17 22 9 12 1005.0 - 0.8
16/09:00pm 20.6 21.2 18.7 89 1.2 NW 13 17 7 9 1004.7 - 0.8
16/08:30pm 20.2 21.1 18.4 89 1.1 NW 11 15 6 8 1004.6 1004.3 0.8
16/08:00pm 20.0 21.0 18.6 92 0.9 NW 11 17 6 9 1004.4 - 0.8
16/07:30pm 19.9 20.8 18.3 90 1.0 WNW 11 15 6 8 1004.0 - 0.8
16/07:00pm 20.1 20.8 18.8 92 0.8 WNW 13 19 7 10 1003.7 - 0.8
16/06:43pm 20.2 21.0 19.1 93 0.7 WNW 13 17 7 9 1003.5 - 0.8

Other Formats:

Comma delimited format used in spreadsheet applications
http://www.bom.gov.au/fwo/IDN60801/IDN60801.94996.axf

JavaScript Object Notation format (JSON) in row-major order
http://www.bom.gov.au/fwo/IDN60801/IDN60801.94996.json